Time;durP1;ratioP1;P1;durP2;ratioP2;P2;SDS_P1;SDS_P2;PMS_P1;PMS_P2;Temp;Humidity;BMP_temperature;BMP_pressure;BME280_temperature;BME280_humidity;BME280_pressure;Samples;Min_cycle;Max_cycle;Signal;HPM_P1;HPM_P2
2023/09/30 00:01:27;;;;;;;0.10;0.10;;;15.90;94.70;;;;;;4965859;28;20046;-81
2023/09/30 00:03:53;;;;;;;0.40;0.40;;;15.80;99.90;;;;;;4985698;28;20034;-82
2023/09/30 00:06:19;;;;;;;0.38;0.20;;;15.80;99.90;;;;;;4973915;28;20401;-81
2023/09/30 00:08:46;;;;;;;0.47;0.47;;;15.80;99.90;;;;;;4932306;28;20054;-82
2023/09/30 00:11:16;;;;;;;0.13;0.10;;;15.70;99.90;;;;;;4963396;28;20634;-81
2023/09/30 00:13:43;;;;;;;0.57;0.57;;;15.60;99.90;;;;;;4975981;28;20080;-81
2023/09/30 00:16:09;;;;;;;0.80;0.35;;;15.50;99.90;;;;;;4957521;28;20051;-81
2023/09/30 00:18:35;;;;;;;5.38;1.17;;;15.40;99.90;;;;;;4951638;28;20047;-82
2023/09/30 00:21:02;;;;;;;0.35;0.35;;;15.30;99.90;;;;;;4964149;28;20035;-81
2023/09/30 00:23:28;;;;;;;0.30;0.30;;;15.20;99.90;;;;;;4969113;28;20041;-82
2023/09/30 00:25:55;;;;;;;0.22;0.22;;;15.10;99.90;;;;;;4975559;28;20035;-80
2023/09/30 00:28:21;;;;;;;2.95;1.35;;;15.10;99.90;;;;;;4968891;28;20031;-80
2023/09/30 00:30:50;;;;;;;1.35;0.95;;;15.10;99.90;;;;;;4951075;28;20047;-81
2023/09/30 00:33:16;;;;;;;1.75;0.40;;;15.00;99.90;;;;;;4961361;28;20061;-81
2023/09/30 00:35:42;;;;;;;9.77;2.25;;;15.00;99.90;;;;;;4965306;28;20047;-81
2023/09/30 00:38:09;;;;;;;0.10;0.10;;;15.10;99.90;;;;;;4973183;28;20091;-81
2023/09/30 00:40:36;;;;;;;0.17;0.17;;;15.20;99.90;;;;;;4969146;28;20383;-82
2023/09/30 00:43:04;;;;;;;0.63;0.32;;;15.20;99.90;;;;;;4965580;28;20038;-81
2023/09/30 00:45:30;;;;;;;0.20;0.20;;;15.30;99.90;;;;;;4966680;28;20054;-80
2023/09/30 00:47:57;;;;;;;1.27;1.08;;;15.40;99.90;;;;;;4960800;28;20283;-81
2023/09/30 00:50:23;;;;;;;0.85;0.32;;;15.30;99.90;;;;;;4962060;28;20420;-83
2023/09/30 00:52:50;;;;;;;1.33;0.68;;;15.40;99.90;;;;;;4947066;28;20042;-82
2023/09/30 00:55:18;;;;;;;1.20;1.02;;;15.40;99.90;;;;;;4945672;28;20042;-81
2023/09/30 00:57:44;;;;;;;0.47;0.30;;;15.40;99.90;;;;;;4977548;28;20038;-82
2023/09/30 01:00:14;;;;;;;0.52;0.30;;;15.40;99.90;;;;;;4954306;28;20038;-82
2023/09/30 01:02:41;;;;;;;0.83;0.83;;;15.40;99.90;;;;;;4951675;28;20047;-83
2023/09/30 01:05:08;;;;;;;0.82;0.57;;;15.40;99.90;;;;;;4962774;28;20068;-83
2023/09/30 01:07:35;;;;;;;0.47;0.47;;;15.30;99.90;;;;;;4963606;28;20034;-83
2023/09/30 01:10:02;;;;;;;1.05;0.95;;;15.30;99.90;;;;;;4982582;28;20035;-83
2023/09/30 01:12:28;;;;;;;0.38;0.35;;;15.30;99.90;;;;;;4978527;28;20047;-81
2023/09/30 01:14:59;;;;;;;2.85;0.47;;;15.30;99.90;;;;;;4964145;28;20366;-81
2023/09/30 01:17:26;;;;;;;0.65;0.50;;;15.20;99.90;;;;;;4965312;28;20043;-81
2023/09/30 01:19:52;;;;;;;0.20;0.20;;;15.10;99.90;;;;;;4981414;28;20038;-81
2023/09/30 01:22:18;;;;;;;0.30;0.30;;;15.20;99.90;;;;;;4956087;28;20043;-81
2023/09/30 01:24:47;;;;;;;0.10;0.10;;;15.20;99.90;;;;;;4969936;28;20041;-81
2023/09/30 01:27:16;;;;;;;0.10;0.10;;;15.20;99.90;;;;;;4969095;28;20050;-81
2023/09/30 01:29:45;;;;;;;1.05;0.30;;;15.20;99.90;;;;;;4964587;28;20035;-81
2023/09/30 01:32:13;;;;;;;0.40;0.40;;;15.20;99.90;;;;;;4980133;28;20058;-81
2023/09/30 01:34:41;;;;;;;0.77;0.50;;;15.30;99.90;;;;;;4946112;29;20063;-80
2023/09/30 01:37:07;;;;;;;0.10;0.10;;;15.30;99.90;;;;;;4943708;29;20031;-78
2023/09/30 01:39:33;;;;;;;1.65;1.55;;;15.40;99.90;;;;;;4931216;29;20066;-81
2023/09/30 01:41:59;;;;;;;0.55;0.55;;;15.50;99.90;;;;;;4949309;29;20285;-81
2023/09/30 01:44:28;;;;;;;0.17;0.17;;;15.50;99.90;;;;;;4945203;29;20036;-82
2023/09/30 01:46:55;;;;;;;2.65;0.73;;;15.60;99.90;;;;;;4926787;29;20496;-81
2023/09/30 01:49:24;;;;;;;0.90;0.50;;;15.60;99.90;;;;;;4950280;29;20031;-81
2023/09/30 01:51:50;;;;;;;0.25;0.17;;;15.60;99.90;;;;;;4947198;29;20043;-82
2023/09/30 01:54:16;;;;;;;0.38;0.32;;;15.60;99.90;;;;;;4935210;29;20086;-82
2023/09/30 01:56:42;;;;;;;0.15;0.15;;;15.50;99.90;;;;;;4944074;29;20397;-82
2023/09/30 01:59:09;;;;;;;0.20;0.13;;;15.50;99.90;;;;;;4925660;29;20047;-82
2023/09/30 02:01:35;;;;;;;0.47;0.40;;;15.50;99.90;;;;;;4932347;29;20047;-82
2023/09/30 02:04:01;;;;;;;2.22;0.95;;;15.50;99.90;;;;;;4930869;29;20477;-82
2023/09/30 02:06:27;;;;;;;7.68;0.60;;;15.50;99.90;;;;;;4930611;29;20058;-82
2023/09/30 02:08:53;;;;;;;0.20;0.20;;;15.50;99.90;;;;;;4939252;29;20035;-81
2023/09/30 02:11:20;;;;;;;1.05;0.45;;;15.60;99.90;;;;;;4937651;29;20038;-81
2023/09/30 02:13:46;;;;;;;1.15;0.68;;;15.60;99.90;;;;;;4935699;29;20047;-82
2023/09/30 02:16:16;;;;;;;0.50;0.40;;;15.60;99.90;;;;;;4932997;29;20066;-81
2023/09/30 02:18:47;;;;;;;0.30;0.30;;;15.70;99.90;;;;;;4937070;29;20373;-82
2023/09/30 02:21:13;;;;;;;0.73;0.73;;;15.70;99.90;;;;;;4929183;29;20385;-81
2023/09/30 02:23:39;;;;;;;0.82;0.63;;;15.70;99.90;;;;;;4951903;29;20035;-81
2023/09/30 02:26:09;;;;;;;0.10;0.10;;;15.70;99.90;;;;;;4946316;29;20051;-81
2023/09/30 02:28:36;;;;;;;0.70;0.68;;;15.70;99.90;;;;;;4949770;29;20035;-81
2023/09/30 02:31:02;;;;;;;5.57;1.55;;;15.70;99.90;;;;;;4943468;29;20036;-81
2023/09/30 02:33:29;;;;;;;0.35;0.35;;;15.70;99.90;;;;;;4954358;28;20066;-82
2023/09/30 02:35:57;;;;;;;0.63;0.47;;;15.70;99.90;;;;;;4975434;28;20472;-82
2023/09/30 02:38:23;;;;;;;1.60;0.40;;;15.70;99.90;;;;;;4962469;28;20042;-82
2023/09/30 02:40:51;;;;;;;0.22;0.22;;;15.60;99.90;;;;;;4965191;28;20046;-81
2023/09/30 02:43:17;;;;;;;0.85;0.65;;;15.50;99.90;;;;;;4948144;28;20046;-82
2023/09/30 02:45:43;;;;;;;0.30;0.17;;;15.40;99.90;;;;;;4975757;28;20052;-82
2023/09/30 02:48:10;;;;;;;0.30;0.30;;;15.40;99.90;;;;;;4958630;28;20044;-81
2023/09/30 02:50:36;;;;;;;0.20;0.10;;;15.30;99.90;;;;;;4968630;28;20451;-81
2023/09/30 02:53:02;;;;;;;0.73;0.73;;;15.20;99.90;;;;;;4950209;28;20055;-81
2023/09/30 02:55:28;;;;;;;0.22;0.22;;;15.20;99.90;;;;;;4959274;28;20472;-81
2023/09/30 02:57:54;;;;;;;0.25;0.25;;;15.10;99.90;;;;;;4980351;28;20038;-81
2023/09/30 03:00:25;;;;;;;0.45;0.45;;;15.00;99.90;;;;;;4959056;28;20034;-81
2023/09/30 03:02:53;;;;;;;0.30;0.20;;;15.00;99.90;;;;;;4964577;28;20074;-82
2023/09/30 03:05:20;;;;;;;0.20;0.20;;;15.00;99.90;;;;;;4969923;28;20043;-81
2023/09/30 03:07:46;;;;;;;0.32;0.32;;;14.90;99.90;;;;;;4940197;28;20046;-81
2023/09/30 03:10:23;;;;;;;1.35;0.88;;;14.90;1.00;;;;;;4963485;28;20043;-81
2023/09/30 03:12:50;;;;;;;1.55;0.52;;;14.70;1.00;;;;;;4964486;28;20156;-81
2023/09/30 03:15:17;;;;;;;2.00;0.57;;;14.70;1.00;;;;;;4970747;28;20018;-79
2023/09/30 03:17:43;;;;;;;1.45;1.23;;;14.60;1.00;;;;;;4955310;28;20049;-80
2023/09/30 03:20:14;;;;;;;0.20;0.20;;;14.60;1.00;;;;;;4980413;28;20035;-81
2023/09/30 03:22:46;;;;;;;0.57;0.57;;;14.50;1.00;;;;;;4970158;28;20058;-81
2023/09/30 03:25:15;;;;;;;0.50;0.50;;;14.40;1.00;;;;;;4966867;28;20035;-80
2023/09/30 03:27:42;;;;;;;0.75;0.73;;;14.40;1.00;;;;;;4965768;28;20047;-81
2023/09/30 03:30:09;;;;;;;0.50;0.30;;;14.40;1.00;;;;;;4948450;28;20039;-81
2023/09/30 03:32:38;;;;;;;0.75;0.75;;;14.40;1.00;;;;;;4974600;28;20046;-81
2023/09/30 03:35:06;;;;;;;1.08;0.77;;;14.40;1.00;;;;;;4964197;28;20051;-81
2023/09/30 03:37:32;;;;;;;1.75;1.23;;;14.40;1.00;;;;;;4974014;28;20038;-80
2023/09/30 03:39:59;;;;;;;0.40;0.40;;;14.50;1.00;;;;;;4957650;28;20043;-81
2023/09/30 03:42:25;;;;;;;0.30;0.30;;;14.50;1.00;;;;;;4962031;28;20054;-81
2023/09/30 03:44:51;;;;;;;1.17;0.98;;;14.60;1.00;;;;;;4965990;28;20368;-82
2023/09/30 03:47:18;;;;;;;0.40;0.40;;;14.60;99.90;;;;;;4956266;28;20042;-81
2023/09/30 03:49:45;;;;;;;0.40;0.40;;;14.60;99.90;;;;;;4971988;28;20033;-80
2023/09/30 03:52:11;;;;;;;2.10;1.85;;;14.70;99.90;;;;;;4959597;28;20062;-81
2023/09/30 03:54:37;;;;;;;0.57;0.57;;;14.70;99.90;;;;;;4970645;28;20046;-81
2023/09/30 03:57:04;;;;;;;0.47;0.47;;;14.60;99.90;;;;;;4963757;28;20059;-80
2023/09/30 03:59:30;;;;;;;0.55;0.47;;;14.60;99.90;;;;;;4974900;28;20035;-81
2023/09/30 04:01:59;;;;;;;3.55;1.10;;;14.70;99.90;;;;;;4970350;28;20038;-80
2023/09/30 04:04:28;;;;;;;0.73;0.65;;;14.70;99.90;;;;;;4959730;28;20392;-78
2023/09/30 04:06:54;;;;;;;0.45;0.43;;;14.70;99.90;;;;;;4966794;28;20038;-80
2023/09/30 04:09:20;;;;;;;0.20;0.20;;;14.70;99.90;;;;;;4970805;28;20411;-78
2023/09/30 04:11:47;;;;;;;1.45;1.35;;;14.60;99.90;;;;;;4969160;28;20065;-80
2023/09/30 04:14:13;;;;;;;1.63;1.42;;;14.60;99.90;;;;;;4978953;28;20031;-80
2023/09/30 04:16:41;;;;;;;0.90;0.88;;;14.60;99.90;;;;;;4969413;28;20363;-81
2023/09/30 04:19:09;;;;;;;2.60;0.73;;;14.60;99.90;;;;;;4966376;28;20054;-81
2023/09/30 04:21:35;;;;;;;0.30;0.30;;;14.60;99.90;;;;;;4954666;28;20027;-80
2023/09/30 04:24:01;;;;;;;0.50;0.45;;;14.60;99.90;;;;;;4970141;28;20034;-81
2023/09/30 04:26:27;;;;;;;0.80;0.80;;;14.60;99.90;;;;;;4968601;28;20035;-79
2023/09/30 04:28:53;;;;;;;0.80;0.40;;;14.60;99.90;;;;;;4954454;28;20051;-79
2023/09/30 04:31:21;;;;;;;2.13;1.27;;;14.60;99.90;;;;;;4958206;28;20490;-80
2023/09/30 04:33:50;;;;;;;0.47;0.47;;;14.60;99.90;;;;;;4963547;28;20135;-82
2023/09/30 04:36:17;;;;;;;0.65;0.65;;;14.60;99.90;;;;;;4973376;28;20038;-81
2023/09/30 04:38:43;;;;;;;0.70;0.70;;;14.60;99.90;;;;;;4953030;28;20048;-80
2023/09/30 04:41:09;;;;;;;3.60;0.90;;;14.60;99.90;;;;;;4968025;28;20035;-79
2023/09/30 04:43:38;;;;;;;1.80;0.35;;;14.50;99.90;;;;;;4973414;28;20035;-79
2023/09/30 04:46:07;;;;;;;0.30;0.30;;;14.50;99.90;;;;;;4975565;28;20041;-82
2023/09/30 04:48:33;;;;;;;0.88;0.75;;;14.40;99.90;;;;;;4956006;28;20065;-81
2023/09/30 04:51:00;;;;;;;3.45;2.28;;;14.40;99.90;;;;;;4967935;28;20035;-83
2023/09/30 04:53:26;;;;;;;0.40;0.40;;;14.50;99.90;;;;;;4976208;28;20356;-79
2023/09/30 04:55:52;;;;;;;0.55;0.52;;;14.40;99.90;;;;;;4973746;28;20128;-80
2023/09/30 04:58:18;;;;;;;1.85;1.00;;;14.40;99.90;;;;;;4950341;28;20381;-81
2023/09/30 05:00:44;;;;;;;1.90;0.90;;;14.30;99.90;;;;;;4972615;28;20053;-81
2023/09/30 05:03:11;;;;;;;0.57;0.35;;;14.30;99.90;;;;;;4971887;28;20198;-81
2023/09/30 05:05:37;;;;;;;1.45;0.80;;;14.30;99.90;;;;;;4968332;28;20119;-81
2023/09/30 05:08:04;;;;;;;5.05;1.45;;;14.30;99.90;;;;;;4978036;28;20042;-81
2023/09/30 05:10:30;;;;;;;0.40;0.40;;;14.30;99.90;;;;;;4971716;28;20428;-79
2023/09/30 05:12:57;;;;;;;2.28;0.60;;;14.30;99.90;;;;;;4957684;28;20047;-82
2023/09/30 05:15:23;;;;;;;1.10;1.00;;;14.20;99.90;;;;;;4958706;28;20039;-81
2023/09/30 05:17:49;;;;;;;1.60;1.50;;;14.20;99.90;;;;;;4966339;28;20031;-81
2023/09/30 05:20:19;;;;;;;0.80;0.60;;;14.20;99.90;;;;;;4946157;28;20034;-81
2023/09/30 05:22:46;;;;;;;0.90;0.68;;;14.20;99.90;;;;;;4969296;28;20410;-82
2023/09/30 05:25:16;;;;;;;0.88;0.88;;;14.30;99.90;;;;;;4972487;28;20042;-81
2023/09/30 05:27:43;;;;;;;7.50;1.27;;;14.20;99.90;;;;;;4965956;28;20042;-81
2023/09/30 05:30:15;;;;;;;4.38;1.25;;;14.20;99.90;;;;;;4969634;28;20030;-81
2023/09/30 05:32:41;;;;;;;1.48;1.25;;;14.20;99.90;;;;;;4968913;28;20457;-82
2023/09/30 05:35:12;;;;;;;0.82;0.75;;;14.20;99.90;;;;;;4943638;28;20099;-81
2023/09/30 05:37:45;;;;;;;1.75;0.93;;;14.20;99.90;;;;;;4970474;28;20039;-81
2023/09/30 05:40:26;;;;;;;1.13;0.50;;;14.20;99.90;;;;;;4956456;28;20447;-81
2023/09/30 05:42:54;;;;;;;2.33;1.70;;;14.20;99.90;;;;;;4951705;28;20038;-83
2023/09/30 05:45:23;;;;;;;2.67;1.00;;;14.20;99.90;;;;;;4952949;28;20107;-81
2023/09/30 05:47:52;;;;;;;1.48;0.63;;;14.30;99.90;;;;;;4975636;28;20049;-83
2023/09/30 05:50:23;;;;;;;1.45;0.68;;;14.20;99.90;;;;;;4969044;28;20034;-82
2023/09/30 05:52:51;;;;;;;0.57;0.57;;;14.20;99.90;;;;;;4960708;28;20475;-82
2023/09/30 05:55:21;;;;;;;1.20;1.10;;;14.30;99.90;;;;;;4972290;28;20041;-83
2023/09/30 05:57:49;;;;;;;1.75;1.15;;;14.30;99.90;;;;;;4965545;28;20034;-84
2023/09/30 06:00:30;;;;;;;1.50;0.65;;;14.30;99.90;;;;;;4969657;28;20031;-82
2023/09/30 06:02:57;;;;;;;;;;;14.40;99.90;;;;;;4968648;28;20038;-83
2023/09/30 06:05:23;;;;;;;0.30;0.30;;;14.40;99.90;;;;;;4954307;28;19911;-83
2023/09/30 06:07:50;;;;;;;0.40;0.38;;;14.50;99.90;;;;;;4968418;28;20034;-80
2023/09/30 06:10:18;;;;;;;0.60;0.25;;;14.60;99.90;;;;;;4957262;28;20026;-81
2023/09/30 06:12:48;;;;;;;2.63;0.73;;;14.60;99.90;;;;;;4971276;28;20046;-80
2023/09/30 06:15:15;;;;;;;0.40;0.40;;;14.60;99.90;;;;;;4953883;28;20039;-81
2023/09/30 06:17:42;;;;;;;0.68;0.55;;;14.70;99.90;;;;;;4957514;28;20102;-81
2023/09/30 06:20:16;;;;;;;3.63;0.80;;;14.70;99.90;;;;;;4975265;28;20039;-83
2023/09/30 06:22:45;;;;;;;0.55;0.52;;;14.80;99.90;;;;;;4966251;28;20410;-83
2023/09/30 06:25:16;;;;;;;0.75;0.68;;;14.90;99.90;;;;;;4957068;28;20046;-83
2023/09/30 06:27:46;;;;;;;1.55;0.82;;;15.00;99.90;;;;;;4968989;28;20051;-81
2023/09/30 06:30:15;;;;;;;1.05;0.98;;;15.00;99.90;;;;;;4976365;28;20349;-81
2023/09/30 06:32:42;;;;;;;0.63;0.63;;;15.10;99.90;;;;;;4966754;28;20050;-80
2023/09/30 06:35:12;;;;;;;2.65;0.73;;;15.10;90.60;;;;;;4974294;28;20050;-82
2023/09/30 06:37:41;;;;;;;0.30;0.30;;;15.10;99.90;;;;;;4969630;28;20039;-82
2023/09/30 06:40:11;;;;;;;0.73;0.57;;;15.10;99.90;;;;;;4962316;28;20376;-80
2023/09/30 06:42:37;;;;;;;0.63;0.63;;;15.00;99.90;;;;;;4973841;28;20285;-81
2023/09/30 06:45:05;;;;;;;0.52;0.47;;;15.00;99.90;;;;;;4966383;28;20037;-83
2023/09/30 06:47:39;;;;;;;2.10;0.57;;;15.00;99.90;;;;;;4956645;28;20043;-81
2023/09/30 06:50:09;;;;;;;2.20;1.25;;;15.00;99.90;;;;;;4975967;28;20038;-79
2023/09/30 06:52:37;;;;;;;;;;;15.00;99.90;;;;;;4976964;28;20483;-78
2023/09/30 06:55:07;;;;;;;0.35;0.35;;;15.10;99.90;;;;;;4963860;28;20352;-80
2023/09/30 06:57:37;;;;;;;1.85;1.08;;;15.10;98.00;;;;;;4975524;28;20461;-81
2023/09/30 07:00:11;;;;;;;2.93;1.17;;;15.20;93.70;;;;;;4967289;28;20365;-79
2023/09/30 07:02:40;;;;;;;1.77;1.05;;;15.20;83.50;;;;;;4958773;28;20289;-79
2023/09/30 07:05:12;;;;;;;1.33;0.45;;;15.20;76.10;;;;;;4947257;28;20039;-79
2023/09/30 07:07:47;;;;;;;1.98;1.23;;;15.30;60.40;;;;;;4954065;28;20043;-80
2023/09/30 07:10:14;;;;;;;2.00;0.77;;;15.40;65.30;;;;;;4969732;28;20369;-81
2023/09/30 07:12:40;;;;;;;1.15;1.05;;;15.40;43.90;;;;;;4957749;28;20513;-81
2023/09/30 07:15:07;;;;;;;0.45;0.45;;;15.40;41.70;;;;;;4976671;28;20453;-78
2023/09/30 07:17:33;;;;;;;0.20;0.20;;;15.50;23.10;;;;;;4965564;28;20042;-78
2023/09/30 07:20:00;;;;;;;0.75;0.65;;;15.60;5.90;;;;;;4969263;28;20054;-78
2023/09/30 07:22:26;;;;;;;2.22;1.77;;;15.60;2.50;;;;;;4956039;28;20046;-80
2023/09/30 07:24:52;;;;;;;1.58;0.80;;;15.60;1.20;;;;;;4960290;28;20046;-77
2023/09/30 07:27:19;;;;;;;1.27;1.17;;;15.70;1.00;;;;;;4968782;28;20491;-79
2023/09/30 07:29:45;;;;;;;1.85;1.15;;;15.90;1.00;;;;;;4976078;28;20027;-78
2023/09/30 07:32:11;;;;;;;1.02;0.70;;;15.90;1.00;;;;;;4956393;28;20396;-79
2023/09/30 07:34:38;;;;;;;0.47;0.47;;;15.90;1.00;;;;;;4954473;28;20043;-79
2023/09/30 07:37:04;;;;;;;0.50;0.50;;;16.00;1.00;;;;;;4958356;28;20043;-79
2023/09/30 07:39:31;;;;;;;0.68;0.65;;;16.00;1.00;;;;;;4964730;28;20046;-78
2023/09/30 07:41:57;;;;;;;1.02;0.90;;;16.10;1.00;;;;;;4970044;28;20043;-83
2023/09/30 07:44:23;;;;;;;1.23;0.68;;;16.10;1.00;;;;;;4971272;28;20034;-80
2023/09/30 07:46:49;;;;;;;1.73;1.08;;;16.10;1.00;;;;;;4974135;28;20035;-78
2023/09/30 07:49:15;;;;;;;0.32;0.30;;;16.30;1.00;;;;;;4956553;28;20030;-77
2023/09/30 07:51:41;;;;;;;0.77;0.73;;;16.40;1.00;;;;;;4956537;28;20038;-77
2023/09/30 07:54:08;;;;;;;0.73;0.63;;;16.20;1.00;;;;;;4972192;28;20366;-76
2023/09/30 07:56:34;;;;;;;1.15;0.68;;;16.20;99.90;;;;;;4977590;28;20034;-80
2023/09/30 07:59:00;;;;;;;0.63;0.45;;;16.30;99.90;;;;;;4973846;28;20022;-79
2023/09/30 08:01:26;;;;;;;3.63;0.40;;;16.40;99.90;;;;;;4968452;28;20026;-78
2023/09/30 08:03:52;;;;;;;0.20;0.20;;;16.40;99.90;;;;;;4970664;28;20035;-79
2023/09/30 08:06:18;;;;;;;2.78;1.02;;;16.60;99.90;;;;;;4972923;28;20379;-80
2023/09/30 08:08:44;;;;;;;15.77;2.70;;;16.90;99.90;;;;;;4960584;28;20039;-80
2023/09/30 08:11:10;;;;;;;0.28;0.28;;;17.10;99.90;;;;;;4945241;28;20035;-80
2023/09/30 08:13:36;;;;;;;0.35;0.32;;;17.00;99.90;;;;;;4967977;28;20046;-80
2023/09/30 08:16:03;;;;;;;0.45;0.28;;;17.20;99.90;;;;;;4978178;28;20037;-80
2023/09/30 08:18:29;;;;;;;0.52;0.52;;;17.20;99.90;;;;;;4973544;28;20038;-80
2023/09/30 08:20:55;;;;;;;0.85;0.80;;;17.40;99.90;;;;;;4969769;28;20038;-80
2023/09/30 08:23:21;;;;;;;0.63;0.40;;;17.40;99.90;;;;;;4947324;28;20047;-80
2023/09/30 08:25:47;;;;;;;2.30;0.40;;;17.70;99.90;;;;;;4971245;28;20042;-80
2023/09/30 08:28:14;;;;;;;0.32;0.30;;;17.70;99.90;;;;;;4979012;28;20047;-78
2023/09/30 08:30:40;;;;;;;0.20;0.20;;;17.60;99.90;;;;;;4960624;28;20035;-80
2023/09/30 08:33:07;;;;;;;0.25;0.25;;;17.50;99.90;;;;;;4966558;28;20070;-80
2023/09/30 08:35:38;;;;;;;0.25;0.25;;;17.40;99.90;;;;;;4968090;28;20050;-80
2023/09/30 08:38:04;;;;;;;3.20;2.03;;;17.60;99.90;;;;;;4977639;28;20034;-80
2023/09/30 08:40:30;;;;;;;0.30;0.30;;;17.80;99.90;;;;;;4974011;28;20031;-79
2023/09/30 08:42:57;;;;;;;1.13;0.80;;;17.80;99.90;;;;;;4954505;28;20409;-79
2023/09/30 08:45:24;;;;;;;1.00;0.80;;;17.50;99.90;;;;;;4967951;28;20338;-79
2023/09/30 08:47:51;;;;;;;0.35;0.35;;;17.50;99.90;;;;;;4970843;28;20057;-80
2023/09/30 08:50:17;;;;;;;0.20;0.20;;;17.50;99.90;;;;;;4975079;28;20030;-81
2023/09/30 08:52:45;;;;;;;1.80;1.33;;;18.00;99.90;;;;;;4948881;28;20043;-81
2023/09/30 08:55:12;;;;;;;0.40;0.40;;;18.60;99.90;;;;;;4968249;28;20034;-81
2023/09/30 08:57:42;;;;;;;0.95;0.22;;;18.80;99.90;;;;;;4970461;28;20050;-80
2023/09/30 09:00:12;;;;;;;1.45;1.17;;;18.70;99.90;;;;;;4972528;28;20030;-81
2023/09/30 09:02:39;;;;;;;0.45;0.35;;;18.90;99.90;;;;;;4967771;28;20277;-81
2023/09/30 09:05:06;;;;;;;8.88;1.17;;;18.60;99.90;;;;;;4948491;28;20028;-84
2023/09/30 09:07:34;;;;;;;1.15;1.05;;;18.40;99.90;;;;;;4963853;28;20372;-86
2023/09/30 09:10:05;;;;;;;0.30;0.30;;;18.60;99.90;;;;;;4950880;28;20035;-87
2023/09/30 09:12:33;;;;;;;1.15;0.43;;;18.90;99.90;;;;;;4967610;28;20046;-84
2023/09/30 09:14:59;;;;;;;0.65;0.65;;;18.90;99.90;;;;;;4949578;28;20057;-77
2023/09/30 09:17:43;;;;;;;0.30;0.30;;;19.10;99.90;;;;;;4947541;28;20044;-79
2023/09/30 09:20:21;;;;;;;3.92;0.50;;;19.20;88.60;;;;;;4958980;28;20388;-80
2023/09/30 09:22:53;;;;;;;7.22;1.27;;;18.90;79.60;;;;;;4954214;28;20049;-84
2023/09/30 09:25:22;;;;;;;3.92;1.52;;;18.90;99.90;;;;;;4972493;28;20050;-83
2023/09/30 09:27:50;;;;;;;0.20;0.10;;;19.20;99.90;;;;;;4971529;28;20561;-82
2023/09/30 09:30:24;;;;;;;0.63;0.45;;;19.20;79.10;;;;;;4973557;28;20480;-83
2023/09/30 09:33:01;;;;;;;5.03;1.52;;;19.00;82.30;;;;;;4979814;28;20031;-82
2023/09/30 09:35:29;;;;;;;0.52;0.52;;;18.90;86.30;;;;;;4947342;29;20035;-86
2023/09/30 09:37:59;;;;;;;1.35;0.95;;;18.90;83.30;;;;;;4947456;29;20047;-84
2023/09/30 09:40:28;;;;;;;1.02;0.80;;;19.10;81.30;;;;;;4954635;28;20047;-80
2023/09/30 09:42:56;;;;;;;2.97;1.23;;;19.30;67.60;;;;;;4982285;28;20034;-85
2023/09/30 09:45:25;;;;;;;1.95;0.93;;;18.90;99.90;;;;;;4962889;28;20258;-80
2023/09/30 09:47:52;;;;;;;1.13;0.82;;;18.80;94.30;;;;;;4974263;28;20043;-83
2023/09/30 09:50:22;;;;;;;1.25;0.85;;;19.20;99.90;;;;;;4962518;28;20039;-81
2023/09/30 09:52:53;;;;;;;1.95;0.90;;;19.40;68.20;;;;;;4979872;28;20488;-79
2023/09/30 09:55:21;;;;;;;2.33;1.02;;;19.10;75.30;;;;;;4968668;28;20046;-85
2023/09/30 09:57:49;;;;;;;0.82;0.82;;;19.10;88.00;;;;;;4960623;28;20039;-85
2023/09/30 10:00:22;;;;;;;0.40;0.38;;;19.10;75.40;;;;;;4958284;28;20046;-81
2023/09/30 10:02:49;;;;;;;5.28;2.05;;;19.20;71.20;;;;;;4959662;28;20045;-83
2023/09/30 10:05:16;;;;;;;0.55;0.50;;;19.20;67.70;;;;;;4982398;28;20035;-83
2023/09/30 10:08:00;;;;;;;0.43;0.40;;;19.20;84.50;;;;;;4981849;28;20039;-80
2023/09/30 10:10:28;;;;;;;0.75;0.75;;;19.40;71.50;;;;;;4974310;28;20046;-82
2023/09/30 10:12:54;;;;;;;3.40;1.70;;;19.20;58.60;;;;;;4942189;28;20046;-79
2023/09/30 10:15:26;;;;;;;0.52;0.52;;;19.10;65.80;;;;;;4984088;28;20034;-80
2023/09/30 10:17:59;;;;;;;0.30;0.30;;;19.40;55.60;;;;;;4960242;28;20061;-82
2023/09/30 10:20:30;;;;;;;1.75;1.33;;;19.40;42.20;;;;;;4953806;28;20388;-86
2023/09/30 10:23:25;;;;;;;1.85;0.52;;;19.20;48.90;;;;;;4969143;28;20035;-79
2023/09/30 10:26:17;;;;;;;0.63;0.63;;;19.10;65.60;;;;;;4979470;28;20035;-79
2023/09/30 10:28:50;;;;;;;0.77;0.77;;;19.10;62.50;;;;;;4967964;28;20416;-82
2023/09/30 10:31:24;;;;;;;0.20;0.20;;;19.20;59.10;;;;;;4968908;28;20054;-80
2023/09/30 10:33:59;;;;;;;0.70;0.70;;;19.30;54.40;;;;;;4959186;28;20055;-81
2023/09/30 10:36:39;;;;;;;0.20;0.20;;;19.30;49.10;;;;;;4982667;28;20038;-82
2023/09/30 10:39:12;;;;;;;1.27;1.13;;;19.20;55.90;;;;;;4969524;28;20206;-85
2023/09/30 10:41:44;;;;;;;0.75;0.75;;;19.10;53.90;;;;;;4978176;28;20035;-81
2023/09/30 10:44:26;;;;;;;3.53;0.75;;;19.20;60.80;;;;;;4976038;28;20372;-80
2023/09/30 10:46:53;;;;;;;0.30;0.30;;;19.40;29.00;;;;;;4960757;28;20038;-82
2023/09/30 10:49:34;;;;;;;1.13;0.50;;;19.50;18.20;;;;;;4977415;28;20042;-81
2023/09/30 10:52:01;;;;;;;0.10;0.10;;;19.70;3.40;;;;;;4975624;28;20079;-78
2023/09/30 10:54:28;;;;;;;0.25;0.22;;;19.90;15.60;;;;;;4970461;28;20039;-82
2023/09/30 10:56:55;;;;;;;0.60;0.60;;;19.60;17.90;;;;;;4973149;28;20040;-81
2023/09/30 10:59:23;;;;;;;4.57;1.30;;;19.60;23.00;;;;;;4978914;28;20065;-80
2023/09/30 11:01:55;;;;;;;0.40;0.40;;;19.30;23.30;;;;;;4964856;28;20035;-82
2023/09/30 11:04:22;;;;;;;0.75;0.70;;;19.20;37.70;;;;;;4958837;28;20055;-82
2023/09/30 11:06:51;;;;;;;2.20;1.00;;;19.20;30.00;;;;;;4966236;28;20049;-84
2023/09/30 11:09:22;;;;;;;2.03;0.95;;;19.20;18.00;;;;;;4979878;28;20034;-81
2023/09/30 11:11:50;;;;;;;0.65;0.65;;;19.30;15.10;;;;;;4977826;28;20031;-85
2023/09/30 11:14:27;;;;;;;0.73;0.73;;;19.50;16.90;;;;;;4977378;28;20045;-81
2023/09/30 11:16:56;;;;;;;1.30;1.20;;;19.40;7.70;;;;;;4956885;28;20039;-80
2023/09/30 11:19:23;;;;;;;0.47;0.45;;;19.50;7.80;;;;;;4969306;28;20038;-83
2023/09/30 11:21:52;;;;;;;0.20;0.20;;;19.60;4.90;;;;;;4968139;28;20065;-83
2023/09/30 11:24:18;;;;;;;0.20;0.20;;;19.70;1.00;;;;;;4968457;28;20045;-83
2023/09/30 11:26:46;;;;;;;0.77;0.77;;;19.80;1.00;;;;;;4976243;28;20433;-84
2023/09/30 11:29:15;;;;;;;0.85;0.70;;;20.10;1.00;;;;;;4972288;28;20038;-83
2023/09/30 11:31:44;;;;;;;2.38;0.75;;;20.10;1.00;;;;;;4973638;28;20479;-84
2023/09/30 11:34:11;;;;;;;0.70;0.40;;;19.90;1.00;;;;;;4955516;28;20062;-82
2023/09/30 11:36:42;;;;;;;3.10;1.10;;;20.10;1.00;;;;;;4972417;28;20046;-79
2023/09/30 11:39:22;;;;;;;1.13;0.98;;;20.10;1.00;;;;;;4973878;28;20031;-84
2023/09/30 11:41:48;;;;;;;;;;;20.00;1.00;;;;;;4987202;28;20026;-84
2023/09/30 11:44:16;;;;;;;0.93;0.80;;;19.80;1.00;;;;;;4958614;28;19910;-85
2023/09/30 11:46:55;;;;;;;0.30;0.30;;;20.00;1.00;;;;;;4958143;28;20371;-85
2023/09/30 11:49:38;;;;;;;5.00;0.20;;;20.20;1.00;;;;;;4969163;28;20042;-81
2023/09/30 11:52:12;;;;;;;0.98;0.75;;;20.20;1.00;;;;;;4977127;28;20042;-83
2023/09/30 11:54:44;;;;;;;0.30;0.30;;;20.00;1.00;;;;;;4973966;28;20066;-83
2023/09/30 11:57:15;;;;;;;0.20;0.20;;;20.10;1.00;;;;;;4973512;28;20046;-89
2023/09/30 11:59:41;;;;;;;1.83;1.08;;;20.20;1.00;;;;;;4976212;28;20038;-79
2023/09/30 12:02:09;;;;;;;0.60;0.47;;;20.20;1.00;;;;;;4962986;28;20042;-87
2023/09/30 12:04:36;;;;;;;8.65;1.38;;;20.20;1.00;;;;;;4972861;28;20046;-83
2023/09/30 12:07:03;;;;;;;2.00;1.17;;;20.20;1.00;;;;;;4959425;28;20376;-86
2023/09/30 12:09:30;;;;;;;0.82;0.82;;;20.20;1.00;;;;;;4960360;28;20043;-82
2023/09/30 12:11:57;;;;;;;1.77;1.45;;;20.50;1.00;;;;;;4968701;28;20038;-85
2023/09/30 12:14:24;;;;;;;0.93;0.93;;;20.40;1.00;;;;;;4987690;28;20061;-84
2023/09/30 12:16:50;;;;;;;0.88;0.88;;;20.10;1.00;;;;;;4957890;28;20143;-84
2023/09/30 12:19:18;;;;;;;0.55;0.55;;;20.00;1.00;;;;;;4983999;28;20035;-86
2023/09/30 12:21:48;;;;;;;0.20;0.20;;;20.10;1.00;;;;;;4972541;28;20043;-87
2023/09/30 12:24:16;;;;;;;0.55;0.55;;;20.40;1.00;;;;;;4977631;28;20399;-83
2023/09/30 12:26:48;;;;;;;1.35;0.88;;;20.40;1.00;;;;;;4979725;28;20027;-87
2023/09/30 12:29:18;;;;;;;0.17;0.17;;;20.30;1.00;;;;;;4960213;28;20464;-85
2023/09/30 12:31:45;;;;;;;1.42;1.00;;;20.40;1.00;;;;;;4977739;28;20058;-80
2023/09/30 12:34:12;;;;;;;0.73;0.60;;;20.60;1.00;;;;;;4978647;28;20051;-84
2023/09/30 12:36:42;;;;;;;1.17;0.80;;;20.50;1.00;;;;;;4937543;28;20059;-89
2023/09/30 12:39:13;;;;;;;0.32;0.32;;;20.40;1.00;;;;;;4973008;28;20432;-91
2023/09/30 12:41:40;;;;;;;;;;;20.50;1.00;;;;;;4965054;28;20035;-87
2023/09/30 12:44:07;;;;;;;1.45;1.35;;;20.50;1.00;;;;;;4961224;28;19929;-83
2023/09/30 12:46:34;;;;;;;0.68;0.60;;;20.40;1.00;;;;;;4970678;28;20043;-88
2023/09/30 12:49:04;;;;;;;0.28;0.28;;;20.70;1.00;;;;;;4978799;28;20039;-89
2023/09/30 12:51:30;;;;;;;2.07;0.83;;;20.80;1.00;;;;;;4957517;28;20116;-89
2023/09/30 12:53:57;;;;;;;0.85;0.85;;;20.90;1.00;;;;;;4973184;28;20091;-89
2023/09/30 12:56:24;;;;;;;0.22;0.20;;;20.90;1.00;;;;;;4982230;28;20026;-91